URO616 LEZL-LEBB
Flight info
| Callsign | URO616 |
|---|---|
| Flight time | 1h 10m |
| Altitude | 34000 |
| Route | HIJ DCT PARKA DCT TLD DCT SIE DCT EDIGO N858 DGO |
| Aircraft | A346/H-SDE2E3FGHIJ3J4J5M1RWXY/LB1D1 |
Departure
| Time | 2026-03-27 11:27 |
|---|---|
| Airport | Seville Airport (LEZL) |
Arrival
| Time | 2026-03-27 12:37 |
|---|---|
| Airport | Bilbao Airport (LEBB) |
| Time | Latitude | Longitude | Altitude | Speed | Heading |
|---|---|---|---|---|---|
| 2026-03-27 11:22 | 37.41981 | -5.90185 | 104 ft | 12 kts | 266° |
| 2026-03-27 11:22 | 37.41979 | -5.90304 | 103 ft | 15 kts | 270° |
| 2026-03-27 11:23 | 37.41979 | -5.90452 | 102 ft | 18 kts | 270° |
| 2026-03-27 11:23 | 37.41979 | -5.90612 | 101 ft | 14 kts | 270° |
| 2026-03-27 11:23 | 37.41978 | -5.90753 | 100 ft | 18 kts | 269° |
| 2026-03-27 11:23 | 37.41977 | -5.90876 | 99 ft | 10 kts | 268° |
| 2026-03-27 11:24 | 37.41956 | -5.90969 | 101 ft | 13 kts | 243° |
| 2026-03-27 11:24 | 37.41904 | -5.91084 | 100 ft | 13 kts | 240° |
| 2026-03-27 11:24 | 37.41865 | -5.91163 | 100 ft | 11 kts | 230° |
| 2026-03-27 11:24 | 37.41819 | -5.91181 | 101 ft | 5 kts | 177° |
| 2026-03-27 11:25 | 37.41794 | -5.91168 | 100 ft | 4 kts | 117° |
| 2026-03-27 11:25 | 37.41789 | -5.91141 | 101 ft | 2 kts | 94° |
| 2026-03-27 11:25 | 37.41789 | -5.91139 | 99 ft | 0 kts | 91° |
| 2026-03-27 11:26 | 37.41789 | -5.91136 | 99 ft | 4 kts | 91° |
| 2026-03-27 11:26 | 37.41789 | -5.90869 | 102 ft | 64 kts | 89° |
| 2026-03-27 11:26 | 37.41792 | -5.90031 | 107 ft | 125 kts | 90° |
| 2026-03-27 11:26 | 37.41793 | -5.88727 | 149 ft | 171 kts | 86° |
| 2026-03-27 11:27 | 37.41806 | -5.87224 | 804 ft | 172 kts | 85° |
| 2026-03-27 11:27 | 37.41819 | -5.85719 | 1582 ft | 172 kts | 89° |
| 2026-03-27 11:27 | 37.41805 | -5.84193 | 2270 ft | 176 kts | 89° |
| 2026-03-27 11:27 | 37.41782 | -5.82621 | 2868 ft | 183 kts | 91° |
| 2026-03-27 11:28 | 37.41787 | -5.80990 | 3435 ft | 190 kts | 86° |
| 2026-03-27 11:28 | 37.42003 | -5.79286 | 3876 ft | 204 kts | 77° |
| 2026-03-27 11:28 | 37.42424 | -5.77512 | 4382 ft | 218 kts | 71° |
| 2026-03-27 11:28 | 37.43214 | -5.75836 | 4976 ft | 232 kts | 43° |
| 2026-03-27 11:29 | 37.44661 | -5.74808 | 5546 ft | 248 kts | 25° |
| 2026-03-27 11:29 | 37.46275 | -5.73956 | 6333 ft | 254 kts | 25° |
| 2026-03-27 11:29 | 37.47907 | -5.73041 | 7161 ft | 259 kts | 26° |
| 2026-03-27 11:29 | 37.49555 | -5.72071 | 8030 ft | 263 kts | 26° |
| 2026-03-27 11:30 | 37.51220 | -5.71074 | 8953 ft | 267 kts | 26° |
| 2026-03-27 11:30 | 37.52890 | -5.70069 | 9826 ft | 275 kts | 26° |
| 2026-03-27 11:30 | 37.54664 | -5.68998 | 10419 ft | 290 kts | 26° |
| 2026-03-27 11:30 | 37.56538 | -5.67865 | 10970 ft | 305 kts | 26° |
| 2026-03-27 11:31 | 37.58479 | -5.66690 | 11720 ft | 312 kts | 26° |
| 2026-03-27 11:31 | 37.60447 | -5.65498 | 12617 ft | 316 kts | 26° |
| 2026-03-27 11:31 | 37.62440 | -5.64290 | 13525 ft | 319 kts | 26° |
| 2026-03-27 11:31 | 37.64458 | -5.63065 | 14348 ft | 324 kts | 26° |
| 2026-03-27 11:32 | 37.66508 | -5.61821 | 15109 ft | 329 kts | 26° |
| 2026-03-27 11:32 | 37.68590 | -5.60558 | 15886 ft | 334 kts | 26° |
| 2026-03-27 11:32 | 37.70700 | -5.59276 | 16669 ft | 339 kts | 26° |
| 2026-03-27 11:32 | 37.72840 | -5.57975 | 17430 ft | 344 kts | 26° |
| 2026-03-27 11:33 | 37.75012 | -5.56652 | 18207 ft | 349 kts | 26° |
| 2026-03-27 11:33 | 37.77214 | -5.55310 | 18883 ft | 353 kts | 26° |
| 2026-03-27 11:33 | 37.79437 | -5.53953 | 19559 ft | 357 kts | 26° |
| 2026-03-27 11:33 | 37.81685 | -5.52581 | 20257 ft | 360 kts | 26° |
| 2026-03-27 11:34 | 37.83951 | -5.51196 | 20981 ft | 363 kts | 26° |
| 2026-03-27 11:34 | 37.86205 | -5.49818 | 21697 ft | 366 kts | 26° |
| 2026-03-27 11:34 | 37.90830 | -5.46990 | 23113 ft | 372 kts | 26° |
| 2026-03-27 11:35 | 37.93175 | -5.45554 | 23788 ft | 376 kts | 26° |
| 2026-03-27 11:35 | 37.95550 | -5.44099 | 24388 ft | 379 kts | 26° |
| 2026-03-27 11:35 | 37.97929 | -5.42641 | 24973 ft | 381 kts | 26° |
| 2026-03-27 11:35 | 38.00324 | -5.41172 | 25550 ft | 384 kts | 26° |
| 2026-03-27 11:36 | 38.02736 | -5.39691 | 26139 ft | 386 kts | 26° |
| 2026-03-27 11:36 | 38.05173 | -5.38194 | 26726 ft | 389 kts | 26° |
| 2026-03-27 11:36 | 38.07615 | -5.36692 | 27295 ft | 392 kts | 26° |
| 2026-03-27 11:36 | 38.10073 | -5.35178 | 27872 ft | 394 kts | 26° |
| 2026-03-27 11:37 | 38.12555 | -5.33650 | 28440 ft | 397 kts | 26° |
| 2026-03-27 11:37 | 38.15048 | -5.32112 | 29017 ft | 400 kts | 26° |
| 2026-03-27 11:37 | 38.17569 | -5.30557 | 29567 ft | 404 kts | 26° |
| 2026-03-27 11:37 | 38.20078 | -5.29010 | 30123 ft | 407 kts | 26° |
| 2026-03-27 11:38 | 38.22636 | -5.27431 | 30484 ft | 412 kts | 26° |
| 2026-03-27 11:38 | 38.25247 | -5.25818 | 30664 ft | 422 kts | 26° |
| 2026-03-27 11:38 | 38.27910 | -5.24171 | 30860 ft | 431 kts | 26° |
| 2026-03-27 11:38 | 38.30640 | -5.22481 | 31116 ft | 438 kts | 26° |
| 2026-03-27 11:39 | 38.33390 | -5.20778 | 31591 ft | 439 kts | 26° |
| 2026-03-27 11:39 | 38.36135 | -5.19077 | 32229 ft | 437 kts | 26° |
| 2026-03-27 11:39 | 38.38860 | -5.17387 | 32853 ft | 434 kts | 26° |
| 2026-03-27 11:39 | 38.41570 | -5.15705 | 33492 ft | 432 kts | 26° |
| 2026-03-27 11:40 | 38.44325 | -5.14178 | 34115 ft | 431 kts | 22° |
| 2026-03-27 11:40 | 38.47151 | -5.12934 | 34598 ft | 430 kts | 18° |
| 2026-03-27 11:40 | 38.50056 | -5.11970 | 35039 ft | 431 kts | 14° |
| 2026-03-27 11:40 | 38.53009 | -5.11300 | 35461 ft | 432 kts | 9° |
| 2026-03-27 11:41 | 38.56007 | -5.10927 | 35860 ft | 433 kts | 5° |
| 2026-03-27 11:41 | 38.59018 | -5.10859 | 36275 ft | 433 kts | 1° |
| 2026-03-27 11:41 | 38.62029 | -5.11065 | 36698 ft | 433 kts | 358° |
| 2026-03-27 11:41 | 38.65030 | -5.11360 | 37106 ft | 432 kts | 358° |
| 2026-03-27 11:42 | 38.68024 | -5.11671 | 37487 ft | 431 kts | 358° |
| 2026-03-27 11:42 | 38.70976 | -5.11981 | 37817 ft | 432 kts | 358° |
| 2026-03-27 11:42 | 38.73979 | -5.12293 | 38093 ft | 433 kts | 358° |
| 2026-03-27 11:42 | 38.76986 | -5.12605 | 38360 ft | 434 kts | 358° |
| 2026-03-27 11:43 | 38.80002 | -5.12917 | 38591 ft | 436 kts | 358° |
| 2026-03-27 11:43 | 38.83036 | -5.13230 | 38752 ft | 438 kts | 358° |
| 2026-03-27 11:43 | 38.86083 | -5.13543 | 38888 ft | 440 kts | 358° |
| 2026-03-27 11:43 | 38.89136 | -5.13857 | 39040 ft | 442 kts | 358° |
| 2026-03-27 11:44 | 38.95270 | -5.13733 | 39081 ft | 440 kts | 8° |
| 2026-03-27 11:44 | 39.01245 | -5.12122 | 39075 ft | 438 kts | 19° |
| 2026-03-27 11:45 | 39.06868 | -5.09103 | 39093 ft | 439 kts | 29° |
| 2026-03-27 11:45 | 39.12079 | -5.05005 | 39092 ft | 439 kts | 33° |
| 2026-03-27 11:46 | 39.17214 | -5.00744 | 39081 ft | 439 kts | 33° |
| 2026-03-27 11:46 | 39.22348 | -4.96476 | 39087 ft | 439 kts | 33° |
| 2026-03-27 11:47 | 39.27485 | -4.92198 | 39090 ft | 440 kts | 33° |
| 2026-03-27 11:47 | 39.32638 | -4.87906 | 39094 ft | 441 kts | 33° |
| 2026-03-27 11:48 | 39.37795 | -4.83605 | 39086 ft | 441 kts | 33° |
| 2026-03-27 11:48 | 39.42951 | -4.79296 | 39094 ft | 441 kts | 33° |
| 2026-03-27 11:49 | 39.48078 | -4.75004 | 39095 ft | 441 kts | 33° |
| 2026-03-27 11:50 | 39.55786 | -4.68532 | 39098 ft | 440 kts | 32° |
| 2026-03-27 11:50 | 39.60923 | -4.64215 | 39108 ft | 439 kts | 32° |
| 2026-03-27 11:51 | 39.66053 | -4.59895 | 39105 ft | 439 kts | 33° |
| 2026-03-27 11:51 | 39.71184 | -4.55563 | 39119 ft | 440 kts | 32° |
| 2026-03-27 11:52 | 39.76300 | -4.51235 | 39112 ft | 437 kts | 32° |
| 2026-03-27 11:52 | 39.81397 | -4.46922 | 39119 ft | 436 kts | 32° |
| 2026-03-27 11:53 | 39.86483 | -4.42610 | 39120 ft | 436 kts | 32° |
| 2026-03-27 11:53 | 39.91568 | -4.38288 | 39116 ft | 437 kts | 32° |
| 2026-03-27 11:54 | 39.96726 | -4.34103 | 39100 ft | 437 kts | 28° |
| 2026-03-27 11:54 | 40.02148 | -4.30526 | 39109 ft | 437 kts | 25° |
| 2026-03-27 11:55 | 40.07664 | -4.27161 | 39110 ft | 437 kts | 25° |
| 2026-03-27 11:55 | 40.13180 | -4.23801 | 39114 ft | 437 kts | 25° |
| 2026-03-27 11:56 | 40.18696 | -4.20431 | 39112 ft | 437 kts | 25° |
| 2026-03-27 11:56 | 40.24165 | -4.17080 | 39105 ft | 437 kts | 24° |
| 2026-03-27 11:57 | 40.29676 | -4.13700 | 39096 ft | 437 kts | 25° |
| 2026-03-27 11:57 | 40.35186 | -4.10314 | 39104 ft | 437 kts | 25° |
| 2026-03-27 11:58 | 40.40711 | -4.06911 | 39094 ft | 437 kts | 25° |
| 2026-03-27 11:58 | 40.46221 | -4.03510 | 39101 ft | 438 kts | 24° |
| 2026-03-27 11:59 | 40.51741 | -4.00100 | 39116 ft | 438 kts | 24° |
| 2026-03-27 11:59 | 40.57261 | -3.96683 | 39117 ft | 438 kts | 24° |
| 2026-03-27 12:00 | 40.62780 | -3.93260 | 39118 ft | 438 kts | 24° |
| 2026-03-27 12:00 | 40.68295 | -3.89832 | 39125 ft | 438 kts | 24° |
| 2026-03-27 12:01 | 40.73810 | -3.86400 | 39129 ft | 438 kts | 24° |
| 2026-03-27 12:01 | 40.79325 | -3.82960 | 39124 ft | 438 kts | 24° |
| 2026-03-27 12:02 | 40.84835 | -3.79515 | 39123 ft | 438 kts | 24° |
| 2026-03-27 12:02 | 40.90336 | -3.76071 | 39131 ft | 437 kts | 24° |
| 2026-03-27 12:03 | 40.95836 | -3.72624 | 39128 ft | 437 kts | 24° |
| 2026-03-27 12:03 | 41.01334 | -3.69171 | 39127 ft | 437 kts | 24° |
| 2026-03-27 12:04 | 41.06797 | -3.65735 | 39125 ft | 437 kts | 24° |
| 2026-03-27 12:04 | 41.12302 | -3.62262 | 39138 ft | 438 kts | 24° |
| 2026-03-27 12:05 | 41.17878 | -3.58964 | 39139 ft | 438 kts | 21° |
| 2026-03-27 12:05 | 41.23531 | -3.55879 | 39153 ft | 438 kts | 21° |
| 2026-03-27 12:06 | 41.29182 | -3.52801 | 39152 ft | 438 kts | 21° |
| 2026-03-27 12:06 | 41.33887 | -3.50228 | 39155 ft | 438 kts | 21° |
| 2026-03-27 12:07 | 41.39527 | -3.47142 | 39158 ft | 438 kts | 21° |
| 2026-03-27 12:07 | 41.45146 | -3.44060 | 38982 ft | 431 kts | 21° |
| 2026-03-27 12:07 | 41.47899 | -3.42545 | 38756 ft | 423 kts | 21° |
| 2026-03-27 12:08 | 41.50594 | -3.41062 | 38459 ft | 415 kts | 21° |
| 2026-03-27 12:08 | 41.53241 | -3.39599 | 38170 ft | 410 kts | 21° |
| 2026-03-27 12:08 | 41.55885 | -3.38138 | 37899 ft | 412 kts | 21° |
| 2026-03-27 12:08 | 41.58535 | -3.36675 | 37615 ft | 413 kts | 21° |
| 2026-03-27 12:09 | 41.61193 | -3.35207 | 37337 ft | 414 kts | 21° |
| 2026-03-27 12:09 | 41.63864 | -3.33730 | 37024 ft | 415 kts | 21° |
| 2026-03-27 12:09 | 41.66539 | -3.32250 | 36612 ft | 416 kts | 21° |
| 2026-03-27 12:09 | 41.69213 | -3.30769 | 36081 ft | 417 kts | 21° |
| 2026-03-27 12:10 | 41.71870 | -3.29296 | 35523 ft | 419 kts | 21° |
| 2026-03-27 12:10 | 41.74602 | -3.27779 | 35017 ft | 418 kts | 21° |
| 2026-03-27 12:10 | 41.77239 | -3.26313 | 34665 ft | 415 kts | 21° |
| 2026-03-27 12:10 | 41.79894 | -3.24837 | 34296 ft | 411 kts | 21° |
| 2026-03-27 12:11 | 41.82528 | -3.23371 | 33926 ft | 408 kts | 21° |
| 2026-03-27 12:11 | 41.85141 | -3.21917 | 33549 ft | 405 kts | 21° |
| 2026-03-27 12:11 | 41.87735 | -3.20471 | 33183 ft | 402 kts | 21° |
| 2026-03-27 12:11 | 41.90305 | -3.19038 | 32844 ft | 398 kts | 21° |
| 2026-03-27 12:12 | 41.92851 | -3.17617 | 32499 ft | 395 kts | 21° |
| 2026-03-27 12:12 | 41.95380 | -3.16204 | 32151 ft | 392 kts | 21° |
| 2026-03-27 12:12 | 41.97889 | -3.14797 | 31817 ft | 388 kts | 21° |
| 2026-03-27 12:12 | 42.00368 | -3.13410 | 31496 ft | 385 kts | 21° |
| 2026-03-27 12:13 | 42.02835 | -3.12030 | 31152 ft | 382 kts | 21° |
| 2026-03-27 12:13 | 42.05283 | -3.10659 | 30814 ft | 380 kts | 21° |
| 2026-03-27 12:13 | 42.07714 | -3.09296 | 30488 ft | 377 kts | 21° |
| 2026-03-27 12:13 | 42.10124 | -3.07943 | 30104 ft | 374 kts | 21° |
| 2026-03-27 12:14 | 42.12512 | -3.06599 | 29746 ft | 371 kts | 21° |
| 2026-03-27 12:14 | 42.14857 | -3.05279 | 29409 ft | 368 kts | 21° |
| 2026-03-27 12:14 | 42.17218 | -3.03948 | 29105 ft | 366 kts | 21° |
| 2026-03-27 12:14 | 42.19562 | -3.02627 | 28759 ft | 364 kts | 21° |
| 2026-03-27 12:15 | 42.21889 | -3.01315 | 28407 ft | 361 kts | 21° |
| 2026-03-27 12:15 | 42.24198 | -3.00011 | 28080 ft | 358 kts | 21° |
| 2026-03-27 12:15 | 42.26492 | -2.98717 | 27743 ft | 356 kts | 21° |
| 2026-03-27 12:15 | 42.28768 | -2.97431 | 27398 ft | 353 kts | 21° |
| 2026-03-27 12:16 | 42.31032 | -2.96151 | 27055 ft | 351 kts | 21° |
| 2026-03-27 12:16 | 42.33282 | -2.94879 | 26735 ft | 349 kts | 21° |
| 2026-03-27 12:16 | 42.35514 | -2.93614 | 26393 ft | 347 kts | 21° |
| 2026-03-27 12:16 | 42.37733 | -2.92356 | 26066 ft | 345 kts | 21° |
| 2026-03-27 12:17 | 42.39945 | -2.91099 | 25687 ft | 343 kts | 21° |
| 2026-03-27 12:17 | 42.42148 | -2.89847 | 25347 ft | 342 kts | 22° |
| 2026-03-27 12:17 | 42.44274 | -2.88408 | 25004 ft | 342 kts | 27° |
| 2026-03-27 12:17 | 42.46248 | -2.86693 | 24681 ft | 342 kts | 33° |
| 2026-03-27 12:18 | 42.48105 | -2.84685 | 24356 ft | 341 kts | 38° |
| 2026-03-27 12:18 | 42.49909 | -2.82547 | 23627 ft | 349 kts | 38° |
| 2026-03-27 12:18 | 42.51755 | -2.80328 | 22761 ft | 358 kts | 39° |
| 2026-03-27 12:18 | 42.53641 | -2.78053 | 21969 ft | 365 kts | 39° |
| 2026-03-27 12:19 | 42.55555 | -2.75741 | 21455 ft | 364 kts | 39° |
| 2026-03-27 12:19 | 42.57442 | -2.73459 | 21007 ft | 362 kts | 39° |
| 2026-03-27 12:19 | 42.59316 | -2.71192 | 20572 ft | 360 kts | 39° |
| 2026-03-27 12:19 | 42.61182 | -2.68936 | 20149 ft | 358 kts | 39° |
| 2026-03-27 12:20 | 42.63037 | -2.66691 | 19680 ft | 356 kts | 39° |
| 2026-03-27 12:20 | 42.64881 | -2.64457 | 19223 ft | 354 kts | 39° |
| 2026-03-27 12:20 | 42.66719 | -2.62231 | 18802 ft | 352 kts | 39° |
| 2026-03-27 12:20 | 42.68543 | -2.60019 | 18371 ft | 350 kts | 39° |
| 2026-03-27 12:21 | 42.70356 | -2.57819 | 17893 ft | 347 kts | 39° |
| 2026-03-27 12:21 | 42.72152 | -2.55638 | 17440 ft | 344 kts | 40° |
| 2026-03-27 12:21 | 42.73931 | -2.53476 | 17012 ft | 341 kts | 40° |
| 2026-03-27 12:21 | 42.75698 | -2.51326 | 16593 ft | 338 kts | 40° |
| 2026-03-27 12:22 | 42.77451 | -2.49193 | 16161 ft | 336 kts | 40° |
| 2026-03-27 12:22 | 42.79183 | -2.47082 | 15753 ft | 333 kts | 40° |
| 2026-03-27 12:22 | 42.80901 | -2.44989 | 15338 ft | 330 kts | 40° |
| 2026-03-27 12:22 | 42.82582 | -2.42938 | 14942 ft | 327 kts | 40° |
| 2026-03-27 12:23 | 42.84277 | -2.40869 | 14557 ft | 324 kts | 40° |
| 2026-03-27 12:23 | 42.85950 | -2.38826 | 14173 ft | 321 kts | 40° |
| 2026-03-27 12:23 | 42.87584 | -2.36828 | 13891 ft | 309 kts | 40° |
| 2026-03-27 12:23 | 42.89171 | -2.34885 | 13640 ft | 297 kts | 40° |
| 2026-03-27 12:24 | 42.90678 | -2.33040 | 13407 ft | 285 kts | 40° |
| 2026-03-27 12:24 | 42.92134 | -2.31254 | 13090 ft | 277 kts | 40° |
| 2026-03-27 12:24 | 42.93564 | -2.29504 | 12600 ft | 275 kts | 40° |
| 2026-03-27 12:24 | 42.94979 | -2.27769 | 12138 ft | 271 kts | 39° |
| 2026-03-27 12:25 | 42.96519 | -2.26341 | 11752 ft | 266 kts | 20° |
| 2026-03-27 12:25 | 42.98328 | -2.25971 | 11280 ft | 265 kts | 357° |
| 2026-03-27 12:25 | 43.00095 | -2.26688 | 10829 ft | 270 kts | 335° |
| 2026-03-27 12:25 | 43.01537 | -2.28350 | 10329 ft | 273 kts | 320° |
| 2026-03-27 12:26 | 43.02821 | -2.30235 | 9701 ft | 268 kts | 320° |
| 2026-03-27 12:26 | 43.04074 | -2.32068 | 8966 ft | 267 kts | 320° |
| 2026-03-27 12:26 | 43.05328 | -2.33912 | 8462 ft | 258 kts | 319° |
| 2026-03-27 12:26 | 43.06513 | -2.35673 | 8152 ft | 245 kts | 319° |
| 2026-03-27 12:27 | 43.07642 | -2.37351 | 7822 ft | 234 kts | 319° |
| 2026-03-27 12:27 | 43.08722 | -2.38954 | 7611 ft | 224 kts | 320° |
| 2026-03-27 12:27 | 43.09758 | -2.40493 | 7364 ft | 217 kts | 320° |
| 2026-03-27 12:27 | 43.10786 | -2.41949 | 7164 ft | 207 kts | 323° |
| 2026-03-27 12:28 | 43.11810 | -2.43264 | 6990 ft | 197 kts | 323° |
| 2026-03-27 12:28 | 43.12728 | -2.44633 | 6791 ft | 192 kts | 315° |
| 2026-03-27 12:28 | 43.13467 | -2.46125 | 6647 ft | 188 kts | 310° |
| 2026-03-27 12:28 | 43.14152 | -2.47681 | 6513 ft | 187 kts | 308° |
| 2026-03-27 12:29 | 43.14798 | -2.49228 | 6398 ft | 187 kts | 307° |
| 2026-03-27 12:29 | 43.15425 | -2.50790 | 6307 ft | 187 kts | 306° |
| 2026-03-27 12:29 | 43.16034 | -2.52363 | 6237 ft | 186 kts | 305° |
| 2026-03-27 12:29 | 43.16632 | -2.53944 | 6106 ft | 187 kts | 304° |
| 2026-03-27 12:30 | 43.17218 | -2.55526 | 5871 ft | 185 kts | 303° |
| 2026-03-27 12:30 | 43.17781 | -2.57075 | 5666 ft | 178 kts | 303° |
| 2026-03-27 12:30 | 43.18314 | -2.58559 | 5435 ft | 169 kts | 303° |
| 2026-03-27 12:30 | 43.18820 | -2.59966 | 5212 ft | 161 kts | 303° |
| 2026-03-27 12:31 | 43.19312 | -2.61334 | 5027 ft | 160 kts | 302° |
| 2026-03-27 12:31 | 43.19807 | -2.62703 | 4798 ft | 160 kts | 301° |
| 2026-03-27 12:31 | 43.20295 | -2.64060 | 4624 ft | 161 kts | 301° |
| 2026-03-27 12:31 | 43.20790 | -2.65435 | 4475 ft | 161 kts | 301° |
| 2026-03-27 12:32 | 43.21285 | -2.66812 | 4394 ft | 160 kts | 301° |
| 2026-03-27 12:32 | 43.21781 | -2.68183 | 4197 ft | 160 kts | 300° |
| 2026-03-27 12:32 | 43.22276 | -2.69550 | 3951 ft | 160 kts | 300° |
| 2026-03-27 12:32 | 43.22774 | -2.70928 | 3703 ft | 161 kts | 301° |
| 2026-03-27 12:33 | 43.23275 | -2.72309 | 3445 ft | 162 kts | 300° |
| 2026-03-27 12:33 | 43.23776 | -2.73691 | 3188 ft | 161 kts | 301° |
| 2026-03-27 12:33 | 43.24276 | -2.75068 | 2942 ft | 161 kts | 301° |
| 2026-03-27 12:33 | 43.24778 | -2.76449 | 2678 ft | 162 kts | 301° |
| 2026-03-27 12:34 | 43.25283 | -2.77832 | 2445 ft | 162 kts | 300° |
| 2026-03-27 12:34 | 43.25772 | -2.79178 | 2182 ft | 153 kts | 300° |
| 2026-03-27 12:34 | 43.26244 | -2.80473 | 1928 ft | 151 kts | 300° |
| 2026-03-27 12:34 | 43.26712 | -2.81763 | 1700 ft | 150 kts | 301° |
| 2026-03-27 12:35 | 43.27179 | -2.83039 | 1440 ft | 149 kts | 300° |
| 2026-03-27 12:35 | 43.27645 | -2.84314 | 1204 ft | 149 kts | 297° |
| 2026-03-27 12:35 | 43.28101 | -2.85593 | 1008 ft | 149 kts | 298° |
| 2026-03-27 12:35 | 43.28562 | -2.86862 | 763 ft | 148 kts | 298° |
| 2026-03-27 12:36 | 43.29019 | -2.88135 | 521 ft | 148 kts | 300° |
| 2026-03-27 12:36 | 43.29486 | -2.89382 | 305 ft | 145 kts | 301° |
| 2026-03-27 12:36 | 43.29937 | -2.90595 | 140 ft | 136 kts | 299° |
| 2026-03-27 12:36 | 43.30274 | -2.91509 | 131 ft | 72 kts | 296° |
| 2026-03-27 12:37 | 43.30442 | -2.91901 | 127 ft | 32 kts | 317° |
| 2026-03-27 12:37 | 43.30583 | -2.92035 | 135 ft | 12 kts | 343° |
| 2026-03-27 12:37 | 43.30626 | -2.91966 | 139 ft | 13 kts | 103° |
| 2026-03-27 12:37 | 43.30579 | -2.91833 | 135 ft | 17 kts | 117° |
| 2026-03-27 12:38 | 43.30518 | -2.91667 | 136 ft | 21 kts | 116° |
| 2026-03-27 12:38 | 43.30447 | -2.91471 | 135 ft | 24 kts | 116° |
| 2026-03-27 12:38 | 43.30368 | -2.91255 | 135 ft | 26 kts | 117° |
| 2026-03-27 12:38 | 43.30282 | -2.91027 | 135 ft | 28 kts | 117° |
| 2026-03-27 12:39 | 43.30212 | -2.90833 | 136 ft | 16 kts | 116° |
| 2026-03-27 12:39 | 43.30159 | -2.90687 | 135 ft | 15 kts | 117° |
| 2026-03-27 12:39 | 43.30154 | -2.90671 | 135 ft | 0 kts | 117° |
| 2026-03-27 12:39 | 43.28635 | -2.87063 | 728 ft | 0 kts | 298° |
| 2026-03-27 12:40 | 43.29090 | -2.88330 | 480 ft | 0 kts | 300° |
| 2026-03-27 12:40 | 43.29558 | -2.89573 | 267 ft | 0 kts | 300° |
| 2026-03-27 12:40 | 43.30004 | -2.90774 | 134 ft | 0 kts | 296° |
| 2026-03-27 12:40 | 43.22401 | -2.69896 | 3902 ft | 0 kts | 300° |
| 2026-03-27 12:41 | 43.28338 | -2.86242 | 904 ft | 0 kts | 298° |
| 2026-03-27 12:41 | 43.29370 | -2.89071 | 363 ft | 0 kts | 301° |
| 2026-03-27 12:41 | 43.29827 | -2.90299 | 151 ft | 0 kts | 300° |
| 2026-03-27 12:41 | 43.30212 | -2.91338 | 133 ft | 0 kts | 296° |
| 2026-03-27 12:42 | 43.30398 | -2.91835 | 132 ft | 0 kts | 305° |
| 2026-03-27 12:42 | 43.30561 | -2.92019 | 137 ft | 0 kts | 326° |